This is the latest recevied weather packets stored in our database for station/object KB9HUO. If no packets are shown the sender has not sent any weather packets the latest 10 day(s).
| Time | Temp. | Humidity | Pressure | Rain* | Wind** | Luminosity | Snow |
|---|---|---|---|---|---|---|---|
| 1778088260 | 14.44° C | 60% | 1015.3 hPa | 0 mm | - | 349 W/m² | - |
| 1778087957 | 13.89° C | 61% | 1015.4 hPa | 0 mm | - | 310 W/m² | - |
| 1778087654 | 13.89° C | 59% | 1015.3 hPa | 0 mm | - | 269 W/m² | - |
| 1778087352 | 13.89° C | 60% | 1015.5 hPa | 0 mm | - | 225 W/m² | - |
| 1778087048 | 13.89° C | 60% | 1015.5 hPa | 0 mm | - | 238 W/m² | - |
| 1778086747 | 13.89° C | 60% | 1015.5 hPa | 0 mm | - | 345 W/m² | - |
| 1778086445 | 13.33° C | 62% | 1015.5 hPa | 0 mm | - | 270 W/m² | - |
| 1778086141 | 13.33° C | 62% | 1015.4 hPa | 0 mm | - | 193 W/m² | - |
| 1778085837 | 13.33° C | 63% | 1015.6 hPa | 0 mm | - | 308 W/m² | - |
| 1778085535 | 13.33° C | 61% | 1015.8 hPa | 0 mm | - | 130 W/m² | - |
| 1778085229 | 13.33° C | 63% | 1015.7 hPa | 0 mm | - | 139 W/m² | - |
| 1778084925 | 13.33° C | 64% | 1015.6 hPa | 0 mm | - | 231 W/m² | - |
| 1778084623 | 13.89° C | 67% | 1015.5 hPa | 0 mm | - | 197 W/m² | - |
| 1778084321 | 13.33° C | 68% | 1015.3 hPa | 0 mm | - | 275 W/m² | - |
| 1778084018 | 13.33° C | 67% | 1015.3 hPa | 0 mm | - | 390 W/m² | - |
| 1778083710 | 13.33° C | 65% | 1015.5 hPa | 0 mm | - | 174 W/m² | - |
| 1778083406 | 13.33° C | 68% | 1015.6 hPa | 0 mm | - | 328 W/m² | - |
| 1778083105 | 13.33° C | 68% | 1015.5 hPa | 0 mm | - | 277 W/m² | - |
| 1778082801 | 13.33° C | 68% | 1015.4 hPa | 0 mm | - | 281 W/m² | - |
| 1778081673 | 12.22° C | 71% | 1015.4 hPa | 0 mm | - | 349 W/m² | - |
| 1778081371 | 12.22° C | 71% | 1015.4 hPa | 0 mm | - | 248 W/m² | - |
| 1778081067 | 11.67° C | 73% | 1015.2 hPa | 0 mm | - | 307 W/m² | - |
| 1778080766 | 11.67° C | 73% | 1015.2 hPa | 0 mm | - | 230 W/m² | - |
| 1778080463 | 12.22° C | 72% | 1015.1 hPa | 0 mm | - | 196 W/m² | - |
| 1778080160 | 12.22° C | 72% | 1015.3 hPa | 0 mm | - | 229 W/m² | - |
* Rain latest hour (hover to see other rain measurements)
** Current wind speed in m/s (hover to see current wind gust speed)